sensor_id;sensor_type;location;lat;lon;timestamp;pressure;altitude;pressure_sealevel;temperature;humidity
3206;BME280;1615;53.602;11.418;2023-04-22T00:01:20;101106.47;;;11.23;98.57
3206;BME280;1615;53.602;11.418;2023-04-22T00:03:45;101011.50;;;10.70;98.92
3206;BME280;1615;53.602;11.418;2023-04-22T00:06:13;101097.94;;;11.24;99.10
3206;BME280;1615;53.602;11.418;2023-04-22T00:08:39;101058.41;;;10.97;99.11
3206;BME280;1615;53.602;11.418;2023-04-22T00:11:04;101092.25;;;11.16;99.79
3206;BME280;1615;53.602;11.418;2023-04-22T00:13:30;101009.31;;;10.72;100.00
3206;BME280;1615;53.602;11.418;2023-04-22T00:15:56;101085.16;;;11.15;100.00
3206;BME280;1615;53.602;11.418;2023-04-22T00:18:24;101018.69;;;10.61;100.00
3206;BME280;1615;53.602;11.418;2023-04-22T00:20:50;101089.56;;;11.11;100.00
3206;BME280;1615;53.602;11.418;2023-04-22T00:23:16;101077.47;;;11.12;100.00
3206;BME280;1615;53.602;11.418;2023-04-22T00:25:41;101083.47;;;11.14;100.00
3206;BME280;1615;53.602;11.418;2023-04-22T00:28:07;101005.91;;;10.80;100.00
3206;BME280;1615;53.602;11.418;2023-04-22T00:30:32;101065.06;;;11.19;100.00
3206;BME280;1615;53.602;11.418;2023-04-22T00:32:58;101061.53;;;11.14;100.00
3206;BME280;1615;53.602;11.418;2023-04-22T00:35:23;101053.31;;;11.14;100.00
3206;BME280;1615;53.602;11.418;2023-04-22T00:37:48;101056.03;;;11.14;100.00
3206;BME280;1615;53.602;11.418;2023-04-22T00:40:14;101050.88;;;11.12;100.00
3206;BME280;1615;53.602;11.418;2023-04-22T00:42:41;101047.00;;;11.13;100.00
3206;BME280;1615;53.602;11.418;2023-04-22T00:45:10;101046.50;;;11.06;100.00
3206;BME280;1615;53.602;11.418;2023-04-22T00:47:36;101033.63;;;11.07;100.00
3206;BME280;1615;53.602;11.418;2023-04-22T00:50:02;101035.25;;;11.08;100.00
3206;BME280;1615;53.602;11.418;2023-04-22T00:52:30;100935.84;;;10.40;100.00
3206;BME280;1615;53.602;11.418;2023-04-22T00:54:55;101029.88;;;10.98;100.00
3206;BME280;1615;53.602;11.418;2023-04-22T00:57:21;101024.38;;;10.98;100.00
3206;BME280;1615;53.602;11.418;2023-04-22T00:59:47;101023.03;;;10.95;100.00
3206;BME280;1615;53.602;11.418;2023-04-22T01:02:13;101024.09;;;10.99;100.00
3206;BME280;1615;53.602;11.418;2023-04-22T01:04:39;101011.50;;;10.98;100.00
3206;BME280;1615;53.602;11.418;2023-04-22T01:07:05;101015.59;;;11.01;100.00
3206;BME280;1615;53.602;11.418;2023-04-22T01:09:30;100923.38;;;10.53;100.00
3206;BME280;1615;53.602;11.418;2023-04-22T01:11:56;101001.31;;;11.04;100.00
3206;BME280;1615;53.602;11.418;2023-04-22T01:14:23;100887.28;;;10.17;100.00
3206;BME280;1615;53.602;11.418;2023-04-22T01:16:49;101007.88;;;11.03;100.00
3206;BME280;1615;53.602;11.418;2023-04-22T01:19:15;101002.16;;;10.99;100.00
3206;BME280;1615;53.602;11.418;2023-04-22T01:21:42;100995.81;;;11.04;100.00
3206;BME280;1615;53.602;11.418;2023-04-22T01:24:09;100999.06;;;11.06;100.00
3206;BME280;1615;53.602;11.418;2023-04-22T01:26:35;100999.66;;;11.03;100.00
3206;BME280;1615;53.602;11.418;2023-04-22T01:29:01;101005.97;;;11.03;100.00
3206;BME280;1615;53.602;11.418;2023-04-22T01:31:28;100995.81;;;11.04;100.00
3206;BME280;1615;53.602;11.418;2023-04-22T01:33:53;100994.16;;;11.03;100.00
3206;BME280;1615;53.602;11.418;2023-04-22T01:36:20;100996.38;;;11.01;100.00
3206;BME280;1615;53.602;11.418;2023-04-22T01:38:45;100994.53;;;10.96;100.00
3206;BME280;1615;53.602;11.418;2023-04-22T01:41:12;100985.47;;;10.96;100.00
3206;BME280;1615;53.602;11.418;2023-04-22T01:43:37;100986.53;;;11.00;100.00
3206;BME280;1615;53.602;11.418;2023-04-22T01:46:07;100983.78;;;11.00;100.00
3206;BME280;1615;53.602;11.418;2023-04-22T01:48:33;100987.63;;;10.99;100.00
3206;BME280;1615;53.602;11.418;2023-04-22T01:50:59;100995.91;;;10.94;100.00
3206;BME280;1615;53.602;11.418;2023-04-22T01:53:25;100978.88;;;10.97;100.00
3206;BME280;1615;53.602;11.418;2023-04-22T01:55:51;100981.09;;;10.95;100.00
3206;BME280;1615;53.602;11.418;2023-04-22T01:58:16;100893.34;;;10.43;100.00
3206;BME280;1615;53.602;11.418;2023-04-22T02:00:42;100958.19;;;10.81;100.00
3206;BME280;1615;53.602;11.418;2023-04-22T02:03:07;100985.56;;;10.86;100.00
3206;BME280;1615;53.602;11.418;2023-04-22T02:05:32;100986.09;;;10.88;100.00
3206;BME280;1615;53.602;11.418;2023-04-22T02:07:58;100987.78;;;10.84;100.00
3206;BME280;1615;53.602;11.418;2023-04-22T02:10:23;100980.72;;;10.78;100.00
3206;BME280;1615;53.602;11.418;2023-04-22T02:12:48;100978.03;;;10.73;100.00
3206;BME280;1615;53.602;11.418;2023-04-22T02:15:14;100979.66;;;10.74;100.00
3206;BME280;1615;53.602;11.418;2023-04-22T02:17:41;100976.88;;;10.79;100.00
3206;BME280;1615;53.602;11.418;2023-04-22T02:20:08;100968.03;;;10.82;100.00
3206;BME280;1615;53.602;11.418;2023-04-22T02:22:35;100961.16;;;10.84;100.00
3206;BME280;1615;53.602;11.418;2023-04-22T02:25:01;100965.84;;;10.84;100.00
3206;BME280;1615;53.602;11.418;2023-04-22T02:27:27;100969.38;;;10.84;100.00
3206;BME280;1615;53.602;11.418;2023-04-22T02:29:53;100958.19;;;10.81;100.00
3206;BME280;1615;53.602;11.418;2023-04-22T02:32:18;100960.06;;;10.85;100.00
3206;BME280;1615;53.602;11.418;2023-04-22T02:34:43;100943.97;;;10.79;100.00
3206;BME280;1615;53.602;11.418;2023-04-22T02:37:09;100957.03;;;10.87;100.00
3206;BME280;1615;53.602;11.418;2023-04-22T02:39:34;100958.69;;;10.88;100.00
3206;BME280;1615;53.602;11.418;2023-04-22T02:41:59;100958.69;;;10.88;100.00
3206;BME280;1615;53.602;11.418;2023-04-22T02:44:25;100974.06;;;10.84;100.00
3206;BME280;1615;53.602;11.418;2023-04-22T02:46:50;100952.13;;;10.84;100.00
3206;BME280;1615;53.602;11.418;2023-04-22T02:49:16;100952.13;;;10.84;100.00
3206;BME280;1615;53.602;11.418;2023-04-22T02:51:41;100947.75;;;10.83;100.00
3206;BME280;1615;53.602;11.418;2023-04-22T02:54:06;100851.84;;;10.26;100.00
3206;BME280;1615;53.602;11.418;2023-04-22T02:56:32;100954.00;;;10.88;100.00
3206;BME280;1615;53.602;11.418;2023-04-22T02:58:57;100941.13;;;10.89;100.00
3206;BME280;1615;53.602;11.418;2023-04-22T03:01:22;100940.22;;;10.93;100.00
3206;BME280;1615;53.602;11.418;2023-04-22T03:03:51;100940.00;;;10.90;100.00
3206;BME280;1615;53.602;11.418;2023-04-22T03:06:16;100941.69;;;10.86;100.00
3206;BME280;1615;53.602;11.418;2023-04-22T03:08:42;100938.47;;;10.79;100.00
3206;BME280;1615;53.602;11.418;2023-04-22T03:11:07;100939.59;;;10.78;100.00
3206;BME280;1615;53.602;11.418;2023-04-22T03:13:33;100800.84;;;10.01;100.00
3206;BME280;1615;53.602;11.418;2023-04-22T03:15:58;100931.25;;;10.88;100.00
3206;BME280;1615;53.602;11.418;2023-04-22T03:18:23;100917.81;;;10.86;100.00
3206;BME280;1615;53.602;11.418;2023-04-22T03:20:49;100917.00;;;10.86;100.00
3206;BME280;1615;53.602;11.418;2023-04-22T03:23:14;100886.44;;;10.74;100.00
3206;BME280;1615;53.602;11.418;2023-04-22T03:25:40;100908.72;;;10.91;100.00
3206;BME280;1615;53.602;11.418;2023-04-22T03:28:05;100820.28;;;10.33;100.00
3206;BME280;1615;53.602;11.418;2023-04-22T03:30:30;100905.34;;;10.99;100.00
3206;BME280;1615;53.602;11.418;2023-04-22T03:32:56;100894.94;;;10.96;100.00
3206;BME280;1615;53.602;11.418;2023-04-22T03:35:22;100908.09;;;10.99;100.00
3206;BME280;1615;53.602;11.418;2023-04-22T03:37:47;100892.66;;;11.03;100.00
3206;BME280;1615;53.602;11.418;2023-04-22T03:40:13;100898.13;;;11.03;100.00
3206;BME280;1615;53.602;11.418;2023-04-22T03:42:38;100877.50;;;10.87;100.00
3206;BME280;1615;53.602;11.418;2023-04-22T03:45:04;100897.06;;;11.04;100.00
3206;BME280;1615;53.602;11.418;2023-04-22T03:47:29;100831.47;;;10.60;100.00
3206;BME280;1615;53.602;11.418;2023-04-22T03:49:54;100893.19;;;11.05;100.00
3206;BME280;1615;53.602;11.418;2023-04-22T03:52:20;100895.41;;;11.03;100.00
3206;BME280;1615;53.602;11.418;2023-04-22T03:54:45;100847.44;;;10.77;100.00
3206;BME280;1615;53.602;11.418;2023-04-22T03:57:10;100888.81;;;11.04;100.00
3206;BME280;1615;53.602;11.418;2023-04-22T03:59:36;100884.13;;;11.04;100.00
3206;BME280;1615;53.602;11.418;2023-04-22T04:02:01;100874.06;;;11.00;100.00
3206;BME280;1615;53.602;11.418;2023-04-22T04:04:26;100866.13;;;10.98;100.00
3206;BME280;1615;53.602;11.418;2023-04-22T04:06:55;100875.69;;;11.01;100.00
3206;BME280;1615;53.602;11.418;2023-04-22T04:09:20;100781.97;;;10.52;100.00
3206;BME280;1615;53.602;11.418;2023-04-22T04:11:45;100867.31;;;11.11;100.00
3206;BME280;1615;53.602;11.418;2023-04-22T04:14:11;100864.50;;;11.16;100.00
3206;BME280;1615;53.602;11.418;2023-04-22T04:16:36;100863.97;;;11.14;100.00
3206;BME280;1615;53.602;11.418;2023-04-22T04:19:02;100861.22;;;11.14;100.00
3206;BME280;1615;53.602;11.418;2023-04-22T04:21:28;100854.94;;;11.13;100.00
3206;BME280;1615;53.602;11.418;2023-04-22T04:23:53;100854.66;;;11.15;100.00
3206;BME280;1615;53.602;11.418;2023-04-22T04:26:19;100799.63;;;10.88;100.00
3206;BME280;1615;53.602;11.418;2023-04-22T04:28:44;100852.94;;;11.19;100.00
3206;BME280;1615;53.602;11.418;2023-04-22T04:31:11;100846.38;;;11.20;100.00
3206;BME280;1615;53.602;11.418;2023-04-22T04:33:36;100846.56;;;11.23;100.00
3206;BME280;1615;53.602;11.418;2023-04-22T04:36:02;100845.19;;;11.26;100.00
3206;BME280;1615;53.602;11.418;2023-04-22T04:38:27;100859.41;;;11.28;100.00
3206;BME280;1615;53.602;11.418;2023-04-22T04:40:53;100848.88;;;11.35;100.00
3206;BME280;1615;53.602;11.418;2023-04-22T04:43:19;100844.63;;;11.42;100.00
3206;BME280;1615;53.602;11.418;2023-04-22T04:45:44;100847.69;;;11.41;100.00
3206;BME280;1615;53.602;11.418;2023-04-22T04:48:14;100844.06;;;11.45;100.00
3206;BME280;1615;53.602;11.418;2023-04-22T04:50:41;100841.47;;;11.54;100.00
3206;BME280;1615;53.602;11.418;2023-04-22T04:53:07;100848.78;;;11.58;100.00
3206;BME280;1615;53.602;11.418;2023-04-22T04:55:32;100848.56;;;11.55;100.00
3206;BME280;1615;53.602;11.418;2023-04-22T04:57:58;100844.16;;;11.59;100.00
3206;BME280;1615;53.602;11.418;2023-04-22T05:00:23;100852.31;;;11.64;100.00
3206;BME280;1615;53.602;11.418;2023-04-22T05:02:48;100839.09;;;11.66;100.00
3206;BME280;1615;53.602;11.418;2023-04-22T05:05:14;100849.41;;;11.74;100.00
3206;BME280;1615;53.602;11.418;2023-04-22T05:07:39;100842.81;;;11.75;100.00
3206;BME280;1615;53.602;11.418;2023-04-22T05:10:05;100843.03;;;11.78;100.00
3206;BME280;1615;53.602;11.418;2023-04-22T05:12:30;100843.44;;;11.85;100.00
3206;BME280;1615;53.602;11.418;2023-04-22T05:14:56;100851.41;;;11.87;100.00
3206;BME280;1615;53.602;11.418;2023-04-22T05:17:21;100857.72;;;11.87;100.00
3206;BME280;1615;53.602;11.418;2023-04-22T05:19:46;100785.38;;;11.60;100.00
3206;BME280;1615;53.602;11.418;2023-04-22T05:22:12;100847.56;;;12.01;100.00
3206;BME280;1615;53.602;11.418;2023-04-22T05:24:37;100846.16;;;12.04;100.00
3206;BME280;1615;53.602;11.418;2023-04-22T05:27:02;100844.34;;;12.13;100.00
3206;BME280;1615;53.602;11.418;2023-04-22T05:29:28;100797.06;;;11.84;100.00
3206;BME280;1615;53.602;11.418;2023-04-22T05:31:53;100757.13;;;11.73;100.00
3206;BME280;1615;53.602;11.418;2023-04-22T05:34:19;100860.91;;;12.40;100.00
3206;BME280;1615;53.602;11.418;2023-04-22T05:36:44;100862.97;;;12.48;100.00
3206;BME280;1615;53.602;11.418;2023-04-22T05:39:09;100856.34;;;12.49;100.00
3206;BME280;1615;53.602;11.418;2023-04-22T05:41:35;100868.69;;;12.51;100.00
3206;BME280;1615;53.602;11.418;2023-04-22T05:44:00;100858.28;;;12.62;100.00
3206;BME280;1615;53.602;11.418;2023-04-22T05:46:26;100853.72;;;12.71;100.00
3206;BME280;1615;53.602;11.418;2023-04-22T05:48:51;100849.25;;;12.75;99.97
3206;BME280;1615;53.602;11.418;2023-04-22T05:51:16;100734.03;;;12.06;99.49
3206;BME280;1615;53.602;11.418;2023-04-22T05:53:42;100845.06;;;12.77;99.23
3206;BME280;1615;53.602;11.418;2023-04-22T05:56:07;100839.75;;;12.81;99.07
3206;BME280;1615;53.602;11.418;2023-04-22T05:58:32;100834.84;;;12.78;98.97
3206;BME280;1615;53.602;11.418;2023-04-22T06:00:58;100839.03;;;12.89;99.13
3206;BME280;1615;53.602;11.418;2023-04-22T06:03:23;100839.97;;;12.98;99.58
3206;BME280;1615;53.602;11.418;2023-04-22T06:05:48;100836.59;;;13.01;98.75
3206;BME280;1615;53.602;11.418;2023-04-22T06:08:14;100834.75;;;13.10;98.94
3206;BME280;1615;53.602;11.418;2023-04-22T06:10:40;100838.13;;;13.20;98.52
3206;BME280;1615;53.602;11.418;2023-04-22T06:13:05;100827.78;;;13.26;98.64
3206;BME280;1615;53.602;11.418;2023-04-22T06:15:33;100828.50;;;13.31;98.02
3206;BME280;1615;53.602;11.418;2023-04-22T06:17:58;100822.38;;;13.34;98.25
3206;BME280;1615;53.602;11.418;2023-04-22T06:20:23;100826.44;;;13.37;98.10
3206;BME280;1615;53.602;11.418;2023-04-22T06:22:49;100826.63;;;13.40;98.05
3206;BME280;1615;53.602;11.418;2023-04-22T06:25:15;100773.47;;;13.18;98.55
3206;BME280;1615;53.602;11.418;2023-04-22T06:27:40;100794.28;;;13.46;98.36
3206;BME280;1615;53.602;11.418;2023-04-22T06:30:06;100813.97;;;13.75;98.12
3206;BME280;1615;53.602;11.418;2023-04-22T06:32:31;100817.47;;;13.89;96.75
3206;BME280;1615;53.602;11.418;2023-04-22T06:34:57;100812.72;;;14.03;97.24
3206;BME280;1615;53.602;11.418;2023-04-22T06:37:22;100809.53;;;14.18;96.79
3206;BME280;1615;53.602;11.418;2023-04-22T06:39:47;100808.69;;;14.31;96.28
3206;BME280;1615;53.602;11.418;2023-04-22T06:42:12;100794.09;;;14.39;96.07
3206;BME280;1615;53.602;11.418;2023-04-22T06:44:38;100741.97;;;14.29;94.14
3206;BME280;1615;53.602;11.418;2023-04-22T06:47:03;100771.19;;;14.69;92.04
3206;BME280;1615;53.602;11.418;2023-04-22T06:49:29;100735.91;;;14.57;90.84
3206;BME280;1615;53.602;11.418;2023-04-22T06:51:54;100803.09;;;15.09;90.74
3206;BME280;1615;53.602;11.418;2023-04-22T06:54:19;100797.25;;;15.19;90.51
3206;BME280;1615;53.602;11.418;2023-04-22T06:56:45;100792.91;;;15.35;90.45
3206;BME280;1615;53.602;11.418;2023-04-22T06:59:10;100773.72;;;15.30;88.59
3206;BME280;1615;53.602;11.418;2023-04-22T07:01:35;100795.69;;;15.35;88.23
3206;BME280;1615;53.602;11.418;2023-04-22T07:04:01;100792.72;;;15.31;88.40
3206;BME280;1615;53.602;11.418;2023-04-22T07:06:26;100792.44;;;15.33;88.67
3206;BME280;1615;53.602;11.418;2023-04-22T07:08:52;100787.75;;;15.33;89.39
3206;BME280;1615;53.602;11.418;2023-04-22T07:11:17;100787.25;;;15.40;89.00
3206;BME280;1615;53.602;11.418;2023-04-22T07:13:43;100789.84;;;15.53;88.53
3206;BME280;1615;53.602;11.418;2023-04-22T07:16:08;100777.31;;;15.64;88.76
3206;BME280;1615;53.602;11.418;2023-04-22T07:18:34;100778.44;;;15.72;88.56
3206;BME280;1615;53.602;11.418;2023-04-22T07:21:00;100777.13;;;15.78;87.57
3206;BME280;1615;53.602;11.418;2023-04-22T07:23:25;100781.00;;;15.94;89.12
3206;BME280;1615;53.602;11.418;2023-04-22T07:25:51;100781.00;;;15.94;87.32
3206;BME280;1615;53.602;11.418;2023-04-22T07:28:16;100778.25;;;15.85;87.08
3206;BME280;1615;53.602;11.418;2023-04-22T07:30:42;100776.75;;;16.05;88.55
3206;BME280;1615;53.602;11.418;2023-04-22T07:33:07;100740.34;;;16.03;88.01
3206;BME280;1615;53.602;11.418;2023-04-22T07:35:32;100761.22;;;16.38;88.20
3206;BME280;1615;53.602;11.418;2023-04-22T07:37:58;100757.00;;;16.40;86.66
3206;BME280;1615;53.602;11.418;2023-04-22T07:40:23;100693.44;;;16.15;86.22
3206;BME280;1615;53.602;11.418;2023-04-22T07:42:48;100769.13;;;16.56;85.25
3206;BME280;1615;53.602;11.418;2023-04-22T07:45:14;100770.72;;;16.66;86.23
3206;BME280;1615;53.602;11.418;2023-04-22T07:47:39;100735.19;;;16.68;87.72
3206;BME280;1615;53.602;11.418;2023-04-22T07:50:05;100761.22;;;17.04;84.67
3206;BME280;1615;53.602;11.418;2023-04-22T07:52:31;100755.59;;;17.13;85.42
3206;BME280;1615;53.602;11.418;2023-04-22T07:54:56;100751.34;;;17.15;85.46
3206;BME280;1615;53.602;11.418;2023-04-22T07:57:21;100753.34;;;17.27;84.02
3206;BME280;1615;53.602;11.418;2023-04-22T07:59:48;100647.34;;;16.77;83.21
3206;BME280;1615;53.602;11.418;2023-04-22T08:02:13;100740.94;;;17.53;83.15
3206;BME280;1615;53.602;11.418;2023-04-22T08:04:38;100737.56;;;17.68;79.16
3206;BME280;1615;53.602;11.418;2023-04-22T08:07:04;100743.47;;;17.79;78.90
3206;BME280;1615;53.602;11.418;2023-04-22T08:09:29;100738.16;;;17.86;77.95
3206;BME280;1615;53.602;11.418;2023-04-22T08:11:55;100736.81;;;17.92;77.42
3206;BME280;1615;53.602;11.418;2023-04-22T08:14:20;100585.78;;;17.12;77.86
3206;BME280;1615;53.602;11.418;2023-04-22T08:16:46;100701.09;;;17.90;77.90
3206;BME280;1615;53.602;11.418;2023-04-22T08:19:11;100730.38;;;18.12;77.12
3206;BME280;1615;53.602;11.418;2023-04-22T08:21:36;100735.25;;;18.15;76.19
3206;BME280;1615;53.602;11.418;2023-04-22T08:24:02;100739.63;;;18.28;78.06
3206;BME280;1615;53.602;11.418;2023-04-22T08:26:27;100726.72;;;18.44;78.83
3206;BME280;1615;53.602;11.418;2023-04-22T08:28:53;100720.72;;;18.54;76.90
3206;BME280;1615;53.602;11.418;2023-04-22T08:31:18;100723.28;;;18.59;76.13
3206;BME280;1615;53.602;11.418;2023-04-22T08:33:44;100716.31;;;18.65;73.90
3206;BME280;1615;53.602;11.418;2023-04-22T08:36:09;100710.53;;;18.70;72.45
3206;BME280;1615;53.602;11.418;2023-04-22T08:38:35;100720.84;;;18.81;73.37
3206;BME280;1615;53.602;11.418;2023-04-22T08:41:02;100707.75;;;18.94;72.50
3206;BME280;1615;53.602;11.418;2023-04-22T08:43:29;100657.53;;;18.75;72.74
3206;BME280;1615;53.602;11.418;2023-04-22T08:45:56;100713.22;;;19.18;72.31
3206;BME280;1615;53.602;11.418;2023-04-22T08:48:22;100618.44;;;18.68;72.57
3206;BME280;1615;53.602;11.418;2023-04-22T08:50:47;100716.41;;;19.44;72.95
3206;BME280;1615;53.602;11.418;2023-04-22T08:53:13;100617.34;;;19.12;71.55
3206;BME280;1615;53.602;11.418;2023-04-22T08:55:43;100700.59;;;19.75;67.40
3206;BME280;1615;53.602;11.418;2023-04-22T08:58:09;100677.16;;;19.61;65.65
3206;BME280;1615;53.602;11.418;2023-04-22T09:00:36;100640.69;;;19.35;65.38
3206;BME280;1615;53.602;11.418;2023-04-22T09:03:02;100598.47;;;19.17;65.37
3206;BME280;1615;53.602;11.418;2023-04-22T09:05:32;100681.94;;;19.60;65.04
3206;BME280;1615;53.602;11.418;2023-04-22T09:07:58;100687.78;;;19.71;65.22
3206;BME280;1615;53.602;11.418;2023-04-22T09:10:24;100678.59;;;19.55;64.10
3206;BME280;1615;53.602;11.418;2023-04-22T09:12:49;100686.41;;;19.49;63.67
3206;BME280;1615;53.602;11.418;2023-04-22T09:15:15;100682.81;;;19.64;65.52
3206;BME280;1615;53.602;11.418;2023-04-22T09:17:41;100684.56;;;19.69;63.34
3206;BME280;1615;53.602;11.418;2023-04-22T09:20:07;100578.69;;;19.07;64.09
3206;BME280;1615;53.602;11.418;2023-04-22T09:22:39;100678.84;;;19.93;65.96
3206;BME280;1615;53.602;11.418;2023-04-22T09:25:06;100597.50;;;19.68;64.85
3206;BME280;1615;53.602;11.418;2023-04-22T09:27:38;100656.97;;;20.38;62.15
3206;BME280;1615;53.602;11.418;2023-04-22T09:30:08;100660.88;;;20.37;60.66
3206;BME280;1615;53.602;11.418;2023-04-22T09:32:34;100660.88;;;20.37;61.48
3206;BME280;1615;53.602;11.418;2023-04-22T09:35:00;100590.69;;;19.97;61.91
3206;BME280;1615;53.602;11.418;2023-04-22T09:37:25;100661.69;;;20.53;61.66
3206;BME280;1615;53.602;11.418;2023-04-22T09:39:52;100649.88;;;20.75;64.26
3206;BME280;1615;53.602;11.418;2023-04-22T09:42:19;100643.72;;;20.85;60.45
3206;BME280;1615;53.602;11.418;2023-04-22T09:44:49;100631.94;;;20.57;59.86
3206;BME280;1615;53.602;11.418;2023-04-22T09:47:18;100651.84;;;20.74;60.94
3206;BME280;1615;53.602;11.418;2023-04-22T09:49:53;100621.91;;;20.71;61.69
3206;BME280;1615;53.602;11.418;2023-04-22T09:52:23;100595.06;;;20.63;59.12
3206;BME280;1615;53.602;11.418;2023-04-22T09:54:51;100626.06;;;20.77;56.73
3206;BME280;1615;53.602;11.418;2023-04-22T09:57:17;100641.50;;;20.90;57.72
3206;BME280;1615;53.602;11.418;2023-04-22T09:59:43;100641.06;;;21.07;58.29
3206;BME280;1615;53.602;11.418;2023-04-22T10:02:08;100645.75;;;21.22;58.05
3206;BME280;1615;53.602;11.418;2023-04-22T10:04:34;100363.16;;;19.56;56.25
3206;BME280;1615;53.602;11.418;2023-04-22T10:06:59;100648.53;;;21.22;55.73
3206;BME280;1615;53.602;11.418;2023-04-22T10:09:27;100633.28;;;21.16;56.46
3206;BME280;1615;53.602;11.418;2023-04-22T10:11:54;100636.94;;;21.39;55.54
3206;BME280;1615;53.602;11.418;2023-04-22T10:14:23;100644.34;;;21.51;54.24
3206;BME280;1615;53.602;11.418;2023-04-22T10:16:51;100623.06;;;21.43;54.04
3206;BME280;1615;53.602;11.418;2023-04-22T10:19:20;100638.19;;;21.42;54.46
3206;BME280;1615;53.602;11.418;2023-04-22T10:21:48;100574.06;;;21.23;55.36
3206;BME280;1615;53.602;11.418;2023-04-22T10:24:17;100630.53;;;21.77;53.92
3206;BME280;1615;53.602;11.418;2023-04-22T10:26:57;100630.34;;;21.89;52.85
3206;BME280;1615;53.602;11.418;2023-04-22T10:29:25;100620.34;;;21.88;52.89
3206;BME280;1615;53.602;11.418;2023-04-22T10:31:54;100629.19;;;21.93;52.07
3206;BME280;1615;53.602;11.418;2023-04-22T10:34:21;100614.47;;;21.93;52.05
3206;BME280;1615;53.602;11.418;2023-04-22T10:39:18;100597.56;;;21.86;51.78
3206;BME280;1615;53.602;11.418;2023-04-22T10:42:09;100600.59;;;22.00;51.35
3206;BME280;1615;53.602;11.418;2023-04-22T10:44:52;100606.50;;;21.95;52.18
3206;BME280;1615;53.602;11.418;2023-04-22T10:49:49;100604.47;;;21.92;53.84
3206;BME280;1615;53.602;11.418;2023-04-22T10:52:26;100602.22;;;22.01;53.97
3206;BME280;1615;53.602;11.418;2023-04-22T10:57:19;100598.84;;;22.14;52.72
3206;BME280;1615;53.602;11.418;2023-04-22T10:59:51;100598.38;;;22.09;51.10
3206;BME280;1615;53.602;11.418;2023-04-22T11:02:18;100595.41;;;22.24;52.21
3206;BME280;1615;53.602;11.418;2023-04-22T11:04:44;100581.94;;;22.30;52.04
3206;BME280;1615;53.602;11.418;2023-04-22T11:14:59;100546.94;;;21.87;53.36
3206;BME280;1615;53.602;11.418;2023-04-22T11:17:25;100459.75;;;21.49;54.32
3206;BME280;1615;53.602;11.418;2023-04-22T11:19:50;100466.91;;;21.69;53.60
3206;BME280;1615;53.602;11.418;2023-04-22T11:22:22;100559.81;;;22.44;53.94
3206;BME280;1615;53.602;11.418;2023-04-22T11:24:59;100558.19;;;22.43;53.31
3206;BME280;1615;53.602;11.418;2023-04-22T11:27:25;100563.47;;;22.48;53.35
3206;BME280;1615;53.602;11.418;2023-04-22T11:30:08;100555.91;;;22.48;53.49
3206;BME280;1615;53.602;11.418;2023-04-22T11:32:36;100517.97;;;22.21;53.72
3206;BME280;1615;53.602;11.418;2023-04-22T11:35:04;100547.00;;;22.43;53.03
3206;BME280;1615;53.602;11.418;2023-04-22T11:37:30;100549.50;;;22.48;53.77
3206;BME280;1615;53.602;11.418;2023-04-22T11:39:59;100542.50;;;22.61;54.83
3206;BME280;1615;53.602;11.418;2023-04-22T11:42:29;100482.19;;;22.30;54.20
3206;BME280;1615;53.602;11.418;2023-04-22T11:44:54;100536.03;;;22.53;52.99
3206;BME280;1615;53.602;11.418;2023-04-22T11:47:19;100538.38;;;22.51;53.56
3206;BME280;1615;53.602;11.418;2023-04-22T11:50:02;100536.16;;;22.64;53.40
3206;BME280;1615;53.602;11.418;2023-04-22T11:52:50;100538.38;;;22.81;54.09
3206;BME280;1615;53.602;11.418;2023-04-22T11:55:22;100533.00;;;22.98;54.47
3206;BME280;1615;53.602;11.418;2023-04-22T11:57:57;100539.13;;;23.11;54.55
3206;BME280;1615;53.602;11.418;2023-04-22T12:00:28;100527.03;;;23.00;52.81
3206;BME280;1615;53.602;11.418;2023-04-22T12:02:59;100522.22;;;23.00;52.71
3206;BME280;1615;53.602;11.418;2023-04-22T12:05:52;100519.56;;;22.78;51.21
3206;BME280;1615;53.602;11.418;2023-04-22T12:08:20;100517.06;;;22.69;51.73
3206;BME280;1615;53.602;11.418;2023-04-22T12:10:50;100518.00;;;22.80;52.82
3206;BME280;1615;53.602;11.418;2023-04-22T12:13:19;100512.59;;;22.98;51.82
3206;BME280;1615;53.602;11.418;2023-04-22T12:15:45;100484.06;;;22.82;51.54
3206;BME280;1615;53.602;11.418;2023-04-22T12:18:11;100503.38;;;22.94;50.80
3206;BME280;1615;53.602;11.418;2023-04-22T12:20:38;100502.88;;;22.85;51.14
3206;BME280;1615;53.602;11.418;2023-04-22T12:23:04;100401.53;;;22.29;50.19
3206;BME280;1615;53.602;11.418;2023-04-22T12:25:32;100504.44;;;22.82;50.13
3206;BME280;1615;53.602;11.418;2023-04-22T12:27:58;100460.09;;;22.48;51.31
3206;BME280;1615;53.602;11.418;2023-04-22T12:30:24;100497.00;;;22.97;51.43
3206;BME280;1615;53.602;11.418;2023-04-22T12:32:50;100418.19;;;22.48;51.25
3206;BME280;1615;53.602;11.418;2023-04-22T12:35:16;100512.16;;;23.29;52.05
3206;BME280;1615;53.602;11.418;2023-04-22T12:37:42;100491.88;;;23.39;51.36
3206;BME280;1615;53.602;11.418;2023-04-22T12:40:07;100493.03;;;23.31;50.71
3206;BME280;1615;53.602;11.418;2023-04-22T12:42:34;100497.03;;;23.33;50.36
3206;BME280;1615;53.602;11.418;2023-04-22T12:44:59;100493.13;;;23.41;51.92
3206;BME280;1615;53.602;11.418;2023-04-22T12:47:24;100534.34;;;23.44;51.77
3206;BME280;1615;53.602;11.418;2023-04-22T12:49:50;100494.03;;;23.56;50.80
3206;BME280;1615;53.602;11.418;2023-04-22T12:52:16;100474.00;;;23.47;49.95
3206;BME280;1615;53.602;11.418;2023-04-22T12:54:41;100491.53;;;23.44;50.77
3206;BME280;1615;53.602;11.418;2023-04-22T12:57:07;100484.69;;;23.38;50.61
3206;BME280;1615;53.602;11.418;2023-04-22T12:59:32;100493.44;;;23.33;51.71
3206;BME280;1615;53.602;11.418;2023-04-22T13:01:57;100478.69;;;23.36;51.58
3206;BME280;1615;53.602;11.418;2023-04-22T13:04:22;100394.41;;;23.04;51.62
3206;BME280;1615;53.602;11.418;2023-04-22T13:06:48;100477.91;;;23.42;51.29